INFORMACIÓN METAR y TAF
METAR FOR SARL
ADDS - METARS form results

(1146 UTC 18 September 2019)
Data provider http://aviationweather.gov/metar/data/
 
METAR text: SARL 181100Z 23007KT CAVOK 10/08 Q1013
Conditions at: SARL (PASO DE LOS LIBR, AR) observed 1100 UTC 18 September 2019
Temperature: 10.0°C (50°F)
Dewpoint: 8.0°C (46°F) [RH = 87%]
Pressure (altimeter): 29.91 inches Hg (1013.0 mb)
Winds: from the SW (230 degrees) at 8 MPH (7 knots; 3.6 m/s)
Visibility: 6 or more miles (10+ km)
Ceiling: ceiling and visibility are OK
Clouds: unknown
Weather: no significant weather observed at this time

 MAPA DE AEROPUERTO

 INFORMACIÓN DE PISTA
Pista 18 Longitud 7415 ft Ancho 148 ft
Elevación 230 ft Umbral desplazado 230 ft Rumbo de pista 171
Pista 36 Longitud 7415 ft Ancho 148 ft
Elevación 229 ft Umbral desplazado 1010 ft Rumbo de pista 351

 FRECUANCIAS DEL AEROPUERTO
Tipo TWR Nombre LIBRES TWR Frecuencia 120.3 MHZ

 RADIO AYUDAS DEL AEROPUERTO
Tipo NDB Nombre Paso De Los Libres Frecuencia 250 KHZ


© 2018   Charly Docampo  Arlat Virtual  Todos los Derechos Reservados    ajugar.com.ar
Powered by Virtual Airlines Manager [v2.6.2]